Time;durP1;ratioP1;P1;durP2;ratioP2;P2;SDS_P1;SDS_P2;PMS_P1;PMS_P2;Temp;Humidity;BMP_temperature;BMP_pressure;BME280_temperature;BME280_humidity;BME280_pressure;Samples;Min_cycle;Max_cycle;Signal;HPM_P1;HPM_P2
2022/01/25 00:08:18;;;;;;;47.58;19.90;;;;;;;-0.92;100.00;100322.31;4841062;29;20118;-58
2022/01/25 00:26:36;;;;;;;;;;;;;;;-0.95;100.00;100296.28;4841062;29;19927;-58
2022/01/25 00:29:11;;;;;;;41.20;18.70;;;;;;;-0.97;100.00;100295.53;4839493;29;19912;-58
2022/01/25 00:31:38;;;;;;;46.97;18.77;;;;;;;-1.06;100.00;100294.34;4840699;29;20068;-58
2022/01/25 00:34:06;;;;;;;46.80;19.95;;;;;;;-0.82;100.00;100291.97;4840656;29;20093;-58
2022/01/25 00:36:33;;;;;;;64.47;21.73;;;;;;;-0.85;100.00;100292.16;4840587;29;20046;-58
2022/01/25 00:38:59;;;;;;;50.08;20.38;;;;;;;-0.82;100.00;100289.34;4840463;29;20052;-58
2022/01/25 00:41:25;;;;;;;48.43;19.67;;;;;;;-0.92;100.00;100289.06;4840438;29;20042;-58
2022/01/25 00:43:51;;;;;;;50.45;19.73;;;;;;;-0.99;100.00;100281.66;4840478;29;20062;-59
2022/01/25 00:46:19;;;;;;;44.77;18.60;;;;;;;-0.96;100.00;100279.72;4840723;29;20121;-58
2022/01/25 00:48:49;;;;;;;59.95;21.42;;;;;;;-1.03;100.00;100282.78;4840406;29;20360;-58
2022/01/25 00:56:24;;;;;;;65.35;21.10;;;;;;;-0.85;100.00;100285.13;4840392;29;20381;-58
2022/01/25 00:58:50;;;;;;;63.28;21.50;;;;;;;-0.95;100.00;100286.66;4840243;29;20139;-59
2022/01/25 01:01:18;;;;;;;76.32;21.55;;;;;;;-1.00;100.00;100293.94;4840325;29;20519;-58
2022/01/25 01:03:43;;;;;;;70.78;20.13;;;;;;;-1.05;100.00;100293.41;4840351;29;20025;-58
2022/01/25 01:06:09;;;;;;;111.07;21.93;;;;;;;-1.15;100.00;100293.09;4840097;29;20064;-58
2022/01/25 01:08:34;;;;;;;113.37;22.63;;;;;;;-1.31;100.00;100289.75;4840313;29;20520;-58
2022/01/25 01:11:03;;;;;;;112.60;22.73;;;;;;;-1.18;100.00;100285.44;4840154;29;20054;-58
2022/01/25 01:48:03;;;;;;;;;;;;;;;-0.86;100.00;100275.56;4843783;29;20500;-58
2022/01/25 01:50:33;;;;;;;49.78;19.73;;;;;;;-1.03;100.00;100267.88;4843319;29;19995;-58
2022/01/25 01:53:00;;;;;;;55.80;22.02;;;;;;;-1.00;100.00;100269.50;4843352;29;20049;-58
2022/01/25 01:55:26;;;;;;;61.63;22.13;;;;;;;-1.00;100.00;100270.34;4843368;29;20056;-59
2022/01/25 01:57:53;;;;;;;55.55;21.92;;;;;;;-1.01;100.00;100273.03;4843210;29;20037;-58
2022/01/25 02:00:23;;;;;;;54.15;20.98;;;;;;;-1.02;100.00;100269.59;4843131;29;20086;-58
2022/01/25 02:02:49;;;;;;;55.10;21.33;;;;;;;-1.06;100.00;100275.13;4843173;29;20041;-58
2022/01/25 02:05:15;;;;;;;62.40;22.73;;;;;;;-1.04;100.00;100263.63;4842908;29;20445;-58
2022/01/25 02:07:40;;;;;;;62.70;22.33;;;;;;;-1.09;100.00;100257.78;4843026;29;20072;-58
2022/01/25 02:10:07;;;;;;;71.10;24.83;;;;;;;-1.10;100.00;100258.72;4842738;29;20086;-58
2022/01/25 02:12:33;;;;;;;66.57;22.88;;;;;;;-1.05;100.00;100258.47;4842765;29;20057;-58
2022/01/25 02:15:02;;;;;;;63.28;22.98;;;;;;;-1.06;100.00;100255.00;4842759;29;20033;-58
2022/01/25 02:23:00;;;;;;;67.22;23.05;;;;;;;-0.90;100.00;100255.69;4842163;29;20106;-58
2022/01/25 02:25:26;;;;;;;69.40;23.52;;;;;;;-1.01;100.00;100252.91;4842491;29;20121;-58
2022/01/25 02:27:52;;;;;;;86.63;25.33;;;;;;;-1.02;100.00;100255.63;4842634;29;20109;-58
2022/01/25 02:30:18;;;;;;;69.07;24.57;;;;;;;-0.91;100.00;100259.25;4842556;29;20049;-58
2022/01/25 02:32:43;;;;;;;75.55;24.10;;;;;;;-0.94;100.00;100256.84;4842497;29;20082;-58
2022/01/25 02:35:10;;;;;;;84.77;25.97;;;;;;;-0.89;100.00;100259.16;4842285;29;20484;-58
2022/01/25 02:37:37;;;;;;;80.03;24.48;;;;;;;-0.75;100.00;100252.13;4842469;29;20030;-58
2022/01/25 02:40:05;;;;;;;84.57;24.95;;;;;;;-0.80;100.00;100256.78;4842241;29;20062;-58
2022/01/25 02:42:31;;;;;;;82.38;24.58;;;;;;;-0.74;100.00;100259.03;4842315;29;20876;-58
2022/01/25 02:44:57;;;;;;;80.73;25.00;;;;;;;-0.57;100.00;100254.47;4842156;29;20124;-59
2022/01/25 02:50:06;;;;;;;80.88;23.73;;;;;;;-0.49;100.00;100247.81;4842067;29;20424;-58
2022/01/25 02:52:32;;;;;;;74.73;22.70;;;;;;;-0.44;100.00;100247.50;4842124;29;20030;-58
2022/01/25 02:54:58;;;;;;;77.53;24.10;;;;;;;-0.34;100.00;100245.97;4842103;29;20034;-58
2022/01/25 02:57:24;;;;;;;78.10;23.57;;;;;;;-0.51;100.00;100243.59;4842077;29;20433;-58
2022/01/25 02:59:50;;;;;;;84.07;25.55;;;;;;;-0.40;100.00;100247.22;4842042;29;20082;-58
2022/01/25 03:02:17;;;;;;;66.97;22.07;;;;;;;-0.57;100.00;100244.81;4841913;29;20037;-59
2022/01/25 03:04:42;;;;;;;75.78;22.75;;;;;;;-0.57;100.00;100239.56;4841891;29;20057;-58
2022/01/25 03:07:09;;;;;;;74.13;23.70;;;;;;;-0.49;100.00;100239.94;4841929;29;20061;-58
2022/01/25 03:09:36;;;;;;;71.47;22.38;;;;;;;-0.53;100.00;100242.84;4842007;29;20029;-58
2022/01/25 03:12:05;;;;;;;67.60;22.63;;;;;;;-0.53;100.00;100240.22;4841614;29;20053;-58
2022/01/25 03:14:34;;;;;;;72.80;21.17;;;;;;;-0.45;100.00;100244.03;4841898;29;20609;-58
2022/01/25 03:22:14;;;;;;;76.57;23.08;;;;;;;-0.39;100.00;100240.19;4841865;29;20037;-58
2022/01/25 03:24:41;;;;;;;69.50;20.40;;;;;;;-0.28;100.00;100242.94;4841745;29;20121;-58
2022/01/25 03:27:06;;;;;;;71.53;22.23;;;;;;;-0.26;100.00;100242.84;4841480;29;20405;-58
2022/01/25 03:29:32;;;;;;;66.43;22.33;;;;;;;-0.22;100.00;100250.41;4841668;29;20045;-58
2022/01/25 03:31:57;;;;;;;68.60;21.10;;;;;;;-0.23;100.00;100256.59;4841480;29;20458;-59
2022/01/25 03:34:23;;;;;;;65.40;19.73;;;;;;;-0.20;100.00;100256.41;4840273;29;20026;-58
2022/01/25 03:36:49;;;;;;;60.23;20.40;;;;;;;-0.23;100.00;100251.34;4841524;29;20034;-58
2022/01/25 03:39:15;;;;;;;61.80;20.60;;;;;;;-0.27;100.00;100249.03;4841363;29;20816;-58
2022/01/25 03:41:41;;;;;;;65.28;20.30;;;;;;;-0.28;100.00;100247.34;4841290;29;20037;-59
2022/01/25 03:44:07;;;;;;;68.55;21.42;;;;;;;-0.16;100.00;100242.13;4841229;29;20033;-58
2022/01/25 03:46:41;;;;;;;70.50;21.87;;;;;;;-0.18;100.00;100241.38;4841152;29;20075;-58
2022/01/25 03:52:08;;;;;;;71.72;22.17;;;;;;;-0.17;100.00;100245.72;4784162;29;20275;-59
2022/01/25 03:54:34;;;;;;;76.55;22.23;;;;;;;-0.22;100.00;100246.94;4784430;30;20066;-59
2022/01/25 03:57:00;;;;;;;81.03;23.63;;;;;;;-0.30;100.00;100255.31;4784237;30;20039;-58
2022/01/25 03:59:28;;;;;;;67.63;22.63;;;;;;;-0.41;100.00;100253.41;4784312;30;20091;-58
2022/01/25 04:01:54;;;;;;;84.53;22.33;;;;;;;-0.35;100.00;100256.59;4784073;29;20066;-58
2022/01/25 04:04:22;;;;;;;84.93;24.00;;;;;;;-0.34;100.00;100253.00;4784095;30;20131;-58
2022/01/25 04:06:51;;;;;;;83.10;24.67;;;;;;;-0.22;100.00;100253.03;4769144;30;20054;-59
2022/01/25 04:09:18;;;;;;;77.27;22.67;;;;;;;-0.30;100.00;100254.50;4783996;30;20263;-58
2022/01/25 04:11:43;;;;;;;80.00;22.97;;;;;;;-0.14;100.00;100252.53;4783810;29;20340;-58
2022/01/25 04:14:09;;;;;;;89.20;24.17;;;;;;;-0.29;100.00;100251.75;4783974;30;20279;-58
2022/01/25 04:16:42;;;;;;;70.90;23.25;;;;;;;-0.22;100.00;100245.16;4784034;30;20486;-58
2022/01/25 04:19:19;;;;;;;85.97;24.50;;;;;;;-0.23;100.00;100245.28;4783967;30;20056;-58
2022/01/25 04:24:43;;;;;;;86.30;24.90;;;;;;;-0.17;100.00;100247.50;4783840;29;20043;-59
2022/01/25 04:24:44;;;;;;;89.07;26.40;;;;;;;-0.14;100.00;100237.63;4783808;30;20047;-58
2022/01/25 04:27:11;;;;;;;88.07;25.00;;;;;;;-0.05;100.00;100237.00;4837049;29;20041;-58
2022/01/25 04:29:37;;;;;;;87.03;24.90;;;;;;;0.08;100.00;100239.66;4839300;29;20069;-59
2022/01/25 04:32:06;;;;;;;93.83;25.23;;;;;;;-0.03;100.00;100236.91;4840402;29;20073;-58
2022/01/25 04:55:53;;;;;;;109.80;28.00;;;;;;;-0.04;100.00;100220.31;4844382;29;20273;-58
2022/01/25 04:58:27;;;;;;;111.07;27.67;;;;;;;-0.07;100.00;100220.50;4842998;29;20038;-58
2022/01/25 05:00:53;;;;;;;112.45;29.33;;;;;;;-0.07;100.00;100220.50;4844023;29;20109;-59
2022/01/25 05:03:25;;;;;;;125.80;30.57;;;;;;;-0.10;100.00;100228.59;4843985;29;20029;-58
2022/01/25 05:06:10;;;;;;;116.40;27.27;;;;;;;-0.06;100.00;100223.97;4844068;29;20358;-58
2022/01/25 05:08:41;;;;;;;126.15;28.13;;;;;;;-0.15;100.00;100217.56;4843883;29;20898;-59
2022/01/25 05:11:12;;;;;;;124.63;28.60;;;;;;;-0.14;100.00;100219.25;4843633;29;20408;-58
2022/01/25 05:16:15;;;;;;;132.85;28.67;;;;;;;-0.01;100.00;100222.72;4843725;29;20314;-58
2022/01/25 05:18:48;;;;;;;141.35;29.42;;;;;;;-0.15;100.00;100220.19;4843833;29;20045;-58
2022/01/25 05:23:59;;;;;;;140.88;32.60;;;;;;;-0.19;100.00;100220.47;4843683;29;20045;-58
2022/01/25 05:26:26;;;;;;;144.88;31.25;;;;;;;-0.18;100.00;100211.66;4843478;29;20093;-58
2022/01/25 05:28:52;;;;;;;138.52;30.20;;;;;;;-0.28;100.00;100215.84;4843571;29;20400;-58
2022/01/25 05:31:18;;;;;;;174.70;31.13;;;;;;;-0.20;100.00;100214.38;4843369;29;20037;-59
2022/01/25 05:33:44;;;;;;;201.02;34.60;;;;;;;-0.19;100.00;100215.22;4843525;29;20477;-59
2022/01/25 05:36:09;;;;;;;151.63;30.23;;;;;;;-0.10;100.00;100201.47;4843329;29;20086;-58
2022/01/25 05:38:35;;;;;;;220.67;33.50;;;;;;;-0.10;100.00;100207.56;4843403;29;20026;-59
2022/01/25 05:41:03;;;;;;;177.87;34.07;;;;;;;-0.04;100.00;100203.69;4826667;29;20120;-59
2022/01/25 05:46:13;;;;;;;198.90;35.38;;;;;;;-0.02;100.00;100207.91;4843262;29;20281;-59
2022/01/25 05:48:39;;;;;;;157.27;30.73;;;;;;;0.02;100.00;100207.69;4843475;29;20559;-58
2022/01/25 05:51:05;;;;;;;160.52;30.85;;;;;;;-0.03;100.00;100203.59;4843095;29;20033;-58
2022/01/25 05:53:31;;;;;;;146.40;30.30;;;;;;;0.03;100.00;100204.09;4843289;29;20029;-58
2022/01/25 05:55:57;;;;;;;137.75;29.77;;;;;;;0.12;100.00;100200.84;4843268;29;20030;-58
2022/01/25 05:58:22;;;;;;;152.57;32.80;;;;;;;0.14;100.00;100204.22;4841948;29;20045;-58
2022/01/25 06:00:48;;;;;;;133.53;30.23;;;;;;;0.15;100.00;100201.50;4842995;29;20531;-58
2022/01/25 06:03:13;;;;;;;171.20;30.67;;;;;;;0.16;100.00;100204.97;4842974;29;20118;-58
2022/01/25 06:05:39;;;;;;;166.37;31.43;;;;;;;0.09;100.00;100201.09;4843002;29;20499;-58
2022/01/25 06:08:05;;;;;;;149.47;30.30;;;;;;;0.10;100.00;100202.78;4842942;29;20109;-58
2022/01/25 06:10:31;;;;;;;104.40;25.07;;;;;;;-0.01;100.00;100193.00;4842866;29;20041;-58
2022/01/25 06:12:57;;;;;;;120.10;27.05;;;;;;;0.01;100.00;100191.06;4842772;29;20058;-58
2022/01/25 06:15:23;;;;;;;115.97;27.03;;;;;;;0.03;100.00;100194.44;4842613;29;20097;-58
2022/01/25 06:17:49;;;;;;;102.13;26.63;;;;;;;0.01;100.00;100198.94;4842791;29;20040;-58
2022/01/25 06:20:16;;;;;;;85.63;24.23;;;;;;;-0.13;100.00;100202.53;4841365;29;20026;-58
2022/01/25 06:22:42;;;;;;;101.90;27.53;;;;;;;0.06;100.00;100191.63;4842557;29;20276;-58
2022/01/25 06:25:10;;;;;;;99.87;26.03;;;;;;;0.01;100.00;100193.69;4842449;29;20322;-58
2022/01/25 06:27:40;;;;;;;97.97;27.25;;;;;;;0.17;100.00;100194.34;4842354;29;20273;-58
2022/01/25 06:30:13;;;;;;;84.47;24.13;;;;;;;0.21;100.00;100192.38;4842512;29;20488;-58
2022/01/25 06:32:39;;;;;;;76.32;23.35;;;;;;;0.19;100.00;100187.22;4840885;29;20281;-58
2022/01/25 06:35:06;;;;;;;72.40;21.97;;;;;;;0.08;100.00;100184.47;4842633;29;20025;-58
2022/01/25 06:37:32;;;;;;;71.40;22.63;;;;;;;0.05;100.00;100189.94;4842311;29;20388;-58
2022/01/25 06:39:58;;;;;;;65.97;20.25;;;;;;;0.10;100.00;100194.88;4842393;29;20030;-58
2022/01/25 06:42:28;;;;;;;67.17;21.30;;;;;;;-0.01;100.00;100190.34;4842212;29;20049;-58
2022/01/25 06:44:57;;;;;;;66.73;22.37;;;;;;;-0.06;100.00;100180.16;4842467;29;20058;-58
2022/01/25 06:47:23;;;;;;;65.70;22.13;;;;;;;-0.02;100.00;100191.31;4842471;29;20624;-58
2022/01/25 06:49:49;;;;;;;63.50;21.83;;;;;;;0.07;100.00;100197.72;4842174;29;20041;-58
2022/01/25 06:52:14;;;;;;;59.23;20.67;;;;;;;0.00;100.00;100195.47;4842201;29;20125;-59
2022/01/25 06:54:40;;;;;;;54.87;20.70;;;;;;;-0.02;100.00;100194.78;4842244;29;20040;-58
2022/01/25 06:57:07;;;;;;;56.93;19.63;;;;;;;-0.05;100.00;100202.84;4842159;29;20065;-58
2022/01/25 06:59:33;;;;;;;49.17;18.33;;;;;;;0.03;100.00;100196.22;4840818;29;20068;-59
2022/01/25 07:01:58;;;;;;;51.93;20.13;;;;;;;0.07;100.00;100197.72;4841959;29;20305;-57
2022/01/25 07:04:24;;;;;;;59.07;19.57;;;;;;;0.21;100.00;100192.38;4841827;29;20068;-57
2022/01/25 07:06:50;;;;;;;52.93;18.40;;;;;;;0.26;100.00;100198.13;4841865;29;20033;-58
2022/01/25 07:09:16;;;;;;;52.03;18.53;;;;;;;0.29;100.00;100204.03;4841714;29;20481;-58
2022/01/25 07:11:41;;;;;;;44.80;16.93;;;;;;;0.37;100.00;100206.13;4841642;29;20293;-58
2022/01/25 07:14:07;;;;;;;36.93;15.87;;;;;;;0.30;100.00;100199.63;4841904;29;20041;-57
2022/01/25 07:16:32;;;;;;;44.57;16.73;;;;;;;0.27;100.00;100205.06;4834048;29;20030;-58
2022/01/25 07:18:58;;;;;;;36.90;15.47;;;;;;;0.25;100.00;100207.81;4819986;29;20473;-56
2022/01/25 07:21:23;;;;;;;41.47;15.47;;;;;;;0.15;100.00;100206.75;4823534;29;20110;-59
2022/01/25 07:23:49;;;;;;;37.00;15.73;;;;;;;0.38;100.00;100202.53;4823445;29;20421;-57
2022/01/25 07:26:14;;;;;;;37.60;15.37;;;;;;;0.31;100.00;100190.78;4823432;29;20069;-57
2022/01/25 07:28:40;;;;;;;41.97;15.23;;;;;;;0.34;100.00;100206.34;4823491;29;20034;-57
2022/01/25 07:31:06;;;;;;;40.20;16.33;;;;;;;0.43;100.00;100203.09;4823012;29;20033;-57
2022/01/25 07:33:31;;;;;;;40.07;15.40;;;;;;;0.43;100.00;100197.81;4823090;29;20374;-57
2022/01/25 07:35:57;;;;;;;44.63;16.90;;;;;;;0.50;100.00;100204.31;4822125;29;20061;-57
2022/01/25 07:38:23;;;;;;;38.70;17.40;;;;;;;0.46;100.00;100207.28;4836167;29;20041;-57
2022/01/25 07:40:48;;;;;;;38.77;15.40;;;;;;;0.48;100.00;100208.00;4841443;29;20086;-58
2022/01/25 07:43:14;;;;;;;40.97;16.23;;;;;;;0.50;100.00;100208.75;4841522;29;20057;-58
2022/01/25 07:45:41;;;;;;;42.27;17.47;;;;;;;0.44;100.00;100204.75;4841305;29;20110;-58
2022/01/25 07:48:09;;;;;;;44.00;17.30;;;;;;;0.50;100.00;100200.84;4840036;29;20044;-58
2022/01/25 07:50:36;;;;;;;44.53;17.67;;;;;;;0.46;100.00;100199.41;4841247;29;20758;-59
2022/01/25 07:53:01;;;;;;;38.67;15.47;;;;;;;0.49;100.00;100199.16;4841173;29;20696;-57
2022/01/25 07:55:27;;;;;;;41.67;16.73;;;;;;;0.35;100.00;100205.38;4839935;29;20309;-57
2022/01/25 07:57:53;;;;;;;48.20;19.97;;;;;;;0.43;100.00;100203.09;4840702;29;20503;-58
2022/01/25 08:00:20;;;;;;;46.77;17.73;;;;;;;0.43;100.00;100210.97;4840896;29;20113;-58
2022/01/25 08:02:46;;;;;;;46.07;16.83;;;;;;;0.29;100.00;100205.81;4840458;29;20034;-58
2022/01/25 08:05:20;;;;;;;44.63;16.80;;;;;;;0.33;100.00;100210.78;4840825;29;20281;-58
2022/01/25 08:07:46;;;;;;;;;;;;;;;0.43;100.00;100212.75;4840975;29;20265;-59
2022/01/25 08:10:11;;;;;;;43.60;16.33;;;;;;;0.51;100.00;100213.06;4840420;29;19934;-59
2022/01/25 08:12:38;;;;;;;42.53;16.37;;;;;;;0.42;100.00;100214.53;4840495;29;20061;-58
2022/01/25 08:15:06;;;;;;;43.47;18.27;;;;;;;0.56;100.00;100211.81;4840773;29;20030;-58
2022/01/25 08:17:32;;;;;;;43.10;16.70;;;;;;;0.48;100.00;100205.38;4840563;29;20657;-58
2022/01/25 08:19:57;;;;;;;42.43;16.53;;;;;;;0.43;100.00;100208.34;4839567;29;20307;-58
2022/01/25 08:22:24;;;;;;;46.03;19.43;;;;;;;0.51;100.00;100203.38;4839996;29;20064;-58
2022/01/25 08:24:50;;;;;;;44.27;18.67;;;;;;;0.54;100.00;100199.72;4840373;29;20038;-58
2022/01/25 08:27:20;;;;;;;45.03;17.60;;;;;;;0.48;100.00;100195.69;4840529;29;20281;-61
2022/01/25 08:29:49;;;;;;;47.63;17.87;;;;;;;0.61;100.00;100200.94;4840594;29;20273;-60
2022/01/25 08:32:15;;;;;;;45.30;18.97;;;;;;;0.59;100.00;100194.94;4840434;29;20277;-61
2022/01/25 08:34:40;;;;;;;45.83;18.70;;;;;;;0.47;100.00;100195.81;4839359;29;20273;-61
2022/01/25 08:37:06;;;;;;;47.53;17.63;;;;;;;0.93;100.00;100202.13;4840496;29;20374;-61
2022/01/25 08:39:31;;;;;;;40.37;16.33;;;;;;;0.78;100.00;100208.50;4840322;29;20029;-62
2022/01/25 08:41:57;;;;;;;47.47;17.30;;;;;;;0.73;100.00;100203.56;4839692;29;20059;-62
2022/01/25 08:44:23;;;;;;;58.90;24.13;;;;;;;0.84;100.00;100199.31;4840421;29;20034;-62
2022/01/25 08:46:49;;;;;;;47.10;16.17;;;;;;;0.77;100.00;100205.97;4840207;29;20037;-62
2022/01/25 08:49:15;;;;;;;44.57;16.40;;;;;;;0.71;100.00;100200.19;4840406;29;20775;-61
2022/01/25 08:51:41;;;;;;;47.20;17.97;;;;;;;0.78;100.00;100189.25;4840261;29;20037;-61
2022/01/25 08:54:07;;;;;;;41.67;16.90;;;;;;;0.75;100.00;100203.47;4840401;29;20508;-62
2022/01/25 08:56:33;;;;;;;47.60;16.70;;;;;;;0.60;100.00;100201.88;4825128;29;20022;-63
2022/01/25 08:58:59;;;;;;;42.37;18.00;;;;;;;0.59;100.00;100210.72;4822181;29;20475;-64
2022/01/25 09:01:26;;;;;;;44.30;16.47;;;;;;;0.76;100.00;100218.28;4821974;29;20625;-60
2022/01/25 09:03:53;;;;;;;46.30;17.40;;;;;;;0.61;100.00;100211.47;4821900;29;20095;-62
2022/01/25 09:06:19;;;;;;;44.53;17.37;;;;;;;0.42;100.00;100213.69;4820300;29;20277;-61
2022/01/25 09:08:45;;;;;;;51.83;18.23;;;;;;;0.43;100.00;100220.66;4820828;29;20705;-61
2022/01/25 09:11:10;;;;;;;51.97;19.47;;;;;;;0.57;100.00;100208.22;4821813;29;20129;-60
2022/01/25 09:13:36;;;;;;;51.83;18.67;;;;;;;0.54;100.00;100208.44;4833024;29;20446;-60
2022/01/25 09:16:02;;;;;;;51.63;18.43;;;;;;;0.52;100.00;100201.59;4821931;29;20791;-61
2022/01/25 09:18:28;;;;;;;58.07;19.67;;;;;;;0.70;100.00;100211.66;4811344;29;20125;-61
2022/01/25 09:20:54;;;;;;;58.53;21.37;;;;;;;0.60;100.00;100212.41;4820185;29;20346;-61
2022/01/25 09:23:20;;;;;;;55.87;19.90;;;;;;;0.73;100.00;100215.88;4821742;29;20036;-61
2022/01/25 09:25:47;;;;;;;83.37;32.27;;;;;;;0.77;100.00;100222.59;4821718;29;20286;-61
2022/01/25 09:28:13;;;;;;;53.17;18.97;;;;;;;0.98;100.00;100215.81;4821912;29;20282;-61
2022/01/25 09:30:39;;;;;;;51.60;19.53;;;;;;;0.84;100.00;100223.00;4821899;29;20812;-61
2022/01/25 09:33:04;;;;;;;50.40;18.60;;;;;;;1.01;100.00;100215.59;4830497;29;20038;-62
2022/01/25 09:35:30;;;;;;;53.40;19.60;;;;;;;1.05;100.00;100218.84;4834117;29;20038;-61
2022/01/25 09:37:56;;;;;;;48.33;18.60;;;;;;;0.83;100.00;100221.31;4825341;29;20051;-62
2022/01/25 09:40:21;;;;;;;57.47;20.90;;;;;;;0.98;100.00;100210.56;4825309;29;20105;-61
2022/01/25 09:42:51;;;;;;;51.70;19.27;;;;;;;0.99;100.00;100211.41;4824911;29;20095;-62
2022/01/25 09:45:17;;;;;;;48.47;18.63;;;;;;;1.15;100.00;100217.25;4824740;29;20026;-62
2022/01/25 09:47:43;;;;;;;53.83;19.63;;;;;;;0.88;100.00;100221.84;4824757;29;20274;-61
2022/01/25 09:50:08;;;;;;;52.40;20.00;;;;;;;0.96;100.00;100216.88;4824580;29;20262;-62
2022/01/25 09:52:35;;;;;;;55.03;20.90;;;;;;;0.91;100.00;100209.31;4824692;29;20109;-61
2022/01/25 09:55:01;;;;;;;59.13;21.57;;;;;;;1.06;100.00;100207.38;4824929;29;20030;-61
2022/01/25 09:57:28;;;;;;;60.67;21.53;;;;;;;1.14;100.00;100189.25;4841322;29;20289;-61
2022/01/25 09:59:54;;;;;;;55.77;20.80;;;;;;;1.13;100.00;100207.78;4843027;29;20269;-61
2022/01/25 10:02:49;;;;;;;58.37;21.67;;;;;;;1.10;100.00;100195.69;4842840;29;20639;-60
2022/01/25 10:05:32;;;;;;;61.87;23.00;;;;;;;1.38;100.00;100200.63;4841532;29;20360;-60
2022/01/25 10:08:03;;;;;;;59.67;21.50;;;;;;;1.11;100.00;100201.78;4843022;29;20627;-61
2022/01/25 10:10:30;;;;;;;65.47;22.73;;;;;;;1.01;100.00;100206.88;4842776;29;20273;-61
2022/01/25 10:13:06;;;;;;;65.17;23.10;;;;;;;1.04;100.00;100201.38;4842564;29;20380;-61
2022/01/25 10:15:32;;;;;;;63.80;22.10;;;;;;;0.93;100.00;100206.56;4842821;29;20293;-61
2022/01/25 10:17:57;;;;;;;67.53;23.97;;;;;;;1.38;100.00;100208.53;4842681;29;20273;-61
2022/01/25 10:20:40;;;;;;;66.07;23.00;;;;;;;1.11;100.00;100212.31;4842572;29;20567;-62
2022/01/25 10:23:31;;;;;;;66.70;22.93;;;;;;;1.17;100.00;100206.59;4841502;29;20105;-62
2022/01/25 10:25:57;;;;;;;61.07;22.27;;;;;;;1.24;100.00;100200.78;4806082;29;20294;-62
2022/01/25 10:28:26;;;;;;;66.17;22.87;;;;;;;1.64;100.00;100193.41;4804858;29;20299;-62
2022/01/25 10:31:04;;;;;;;62.87;22.90;;;;;;;1.76;100.00;100191.66;4805988;29;20314;-62
2022/01/25 10:33:42;;;;;;;61.67;21.57;;;;;;;1.68;100.00;100186.97;4806116;29;20358;-62
2022/01/25 10:36:16;;;;;;;54.67;20.90;;;;;;;1.71;100.00;100194.66;4806206;29;20286;-62
2022/01/25 10:38:44;;;;;;;59.67;22.73;;;;;;;1.86;100.00;100186.53;4804655;29;20354;-62
2022/01/25 10:41:19;;;;;;;55.00;21.47;;;;;;;1.67;100.00;100197.63;4805824;29;21061;-62
2022/01/25 10:43:47;;;;;;;56.57;23.50;;;;;;;1.23;100.00;100195.63;4805704;29;20273;-62
2022/01/25 10:46:17;;;;;;;57.63;21.77;;;;;;;1.31;100.00;100183.59;4805266;29;20298;-61
2022/01/25 10:48:47;;;;;;;60.70;22.90;;;;;;;1.55;100.00;100173.03;4806067;29;20271;-61
2022/01/25 10:51:16;;;;;;;62.20;23.10;;;;;;;1.66;100.00;100164.31;4805600;29;20267;-61
2022/01/25 10:53:42;;;;;;;58.97;22.17;;;;;;;1.67;100.00;100169.50;4805892;29;20274;-61
2022/01/25 10:56:09;;;;;;;63.67;23.53;;;;;;;1.74;100.00;100161.94;4805722;29;20335;-62
2022/01/25 10:58:40;;;;;;;55.33;21.97;;;;;;;1.67;100.00;100158.09;4805575;29;20633;-62
2022/01/25 11:01:06;;;;;;;56.37;21.53;;;;;;;1.66;100.00;100166.97;4805388;29;20279;-62
2022/01/25 11:03:35;;;;;;;56.50;22.70;;;;;;;1.74;100.00;100159.31;4805481;29;20270;-64
2022/01/25 11:06:16;;;;;;;51.67;20.63;;;;;;;1.76;100.00;100163.53;4789147;29;20295;-61
2022/01/25 11:08:45;;;;;;;52.00;22.57;;;;;;;1.87;100.00;100161.88;4819367;29;20278;-62
2022/01/25 11:11:21;;;;;;;51.00;21.70;;;;;;;1.80;100.00;100153.59;4810376;29;20294;-62
2022/01/25 11:13:52;;;;;;;53.43;22.17;;;;;;;2.12;100.00;100151.97;4816735;29;20270;-62
2022/01/25 11:16:27;;;;;;;52.90;22.00;;;;;;;1.98;100.00;100146.06;4815566;29;20262;-63
2022/01/25 11:18:53;;;;;;;54.40;22.60;;;;;;;2.10;100.00;100148.63;4812558;29;20752;-63
2022/01/25 11:21:20;;;;;;;56.40;23.57;;;;;;;2.17;100.00;100143.72;4818006;29;20361;-62
2022/01/25 11:23:46;;;;;;;53.97;23.57;;;;;;;1.79;100.00;100146.66;4819982;29;20038;-62
2022/01/25 11:26:14;;;;;;;52.57;22.53;;;;;;;1.98;100.00;100140.81;4822280;29;20301;-62
2022/01/25 11:28:41;;;;;;;54.73;23.37;;;;;;;2.13;100.00;100144.91;4823212;29;20427;-62
2022/01/25 11:31:26;;;;;;;56.10;23.57;;;;;;;1.82;100.00;100143.78;4823389;29;20270;-62
2022/01/25 11:33:53;;;;;;;53.83;22.07;;;;;;;1.93;100.00;100140.34;4821866;29;20277;-62
2022/01/25 11:36:20;;;;;;;53.07;22.57;;;;;;;2.02;100.00;100137.00;4823423;29;20621;-62
2022/01/25 11:38:51;;;;;;;49.93;21.50;;;;;;;2.07;100.00;100129.56;4823201;29;20274;-62
2022/01/25 11:41:21;;;;;;;53.37;22.23;;;;;;;2.17;100.00;100128.75;4823045;29;20760;-62
2022/01/25 11:44:09;;;;;;;53.70;22.50;;;;;;;2.21;100.00;100131.13;4821333;29;20645;-62
2022/01/25 11:46:40;;;;;;;53.57;24.27;;;;;;;2.01;100.00;100128.25;4822938;29;20366;-60
2022/01/25 11:49:16;;;;;;;54.43;22.63;;;;;;;2.05;100.00;100121.78;4822969;29;20292;-61
2022/01/25 11:51:43;;;;;;;53.90;22.50;;;;;;;2.32;100.00;100121.41;4823005;29;20274;-61
2022/01/25 11:54:09;;;;;;;54.10;24.30;;;;;;;2.18;100.00;100122.53;4806839;29;20344;-61
2022/01/25 11:56:36;;;;;;;50.27;21.63;;;;;;;2.22;100.00;100122.25;4821871;29;20266;-60
2022/01/25 11:59:02;;;;;;;50.67;23.17;;;;;;;2.10;100.00;100122.25;4826254;29;20752;-64
2022/01/25 12:01:28;;;;;;;52.00;21.20;;;;;;;2.42;100.00;100122.38;4823782;29;20763;-58
2022/01/25 12:04:03;;;;;;;48.83;20.70;;;;;;;2.44;100.00;100112.53;4822820;29;20763;-59
2022/01/25 12:06:34;;;;;;;46.93;19.90;;;;;;;2.39;100.00;100113.88;4822466;29;20337;-60
2022/01/25 12:11:51;;;;;;;46.50;21.23;;;;;;;2.62;100.00;100106.78;4822490;29;20640;-60
2022/01/25 12:14:43;;;;;;;48.03;21.10;;;;;;;2.28;100.00;100103.34;4822722;29;20071;-60
2022/01/25 12:17:12;;;;;;;46.97;19.53;;;;;;;2.38;100.00;100091.94;4817178;29;20748;-59
2022/01/25 12:19:58;;;;;;;48.37;20.50;;;;;;;2.60;100.00;100092.88;4821303;29;20738;-60
2022/01/25 12:22:38;;;;;;;46.83;20.23;;;;;;;2.58;100.00;100086.88;4822537;29;20321;-60
2022/01/25 12:25:17;;;;;;;44.40;19.57;;;;;;;2.66;100.00;100093.19;4822482;29;20705;-60
2022/01/25 12:27:58;;;;;;;40.23;18.80;;;;;;;2.47;100.00;100093.84;4821943;29;20828;-60
2022/01/25 12:30:38;;;;;;;43.37;19.53;;;;;;;2.53;100.00;100079.34;4822305;29;20752;-59
2022/01/25 12:33:08;;;;;;;44.13;19.47;;;;;;;2.57;100.00;100079.91;4822179;29;20274;-59
2022/01/25 12:35:52;;;;;;;46.23;21.40;;;;;;;2.42;100.00;100079.34;4822241;29;20760;-60
2022/01/25 12:38:19;;;;;;;42.97;18.73;;;;;;;2.55;100.00;100072.94;4822253;29;20266;-60
2022/01/25 12:40:57;;;;;;;42.77;19.03;;;;;;;2.35;100.00;100065.78;4821117;29;20948;-60
2022/01/25 12:43:24;;;;;;;39.90;18.03;;;;;;;2.44;100.00;100066.84;4822320;29;20269;-60
2022/01/25 12:46:02;;;;;;;39.70;17.93;;;;;;;2.31;100.00;100063.53;4821744;29;20384;-60
2022/01/25 12:48:32;;;;;;;43.33;18.33;;;;;;;2.14;100.00;100063.06;4822124;29;20270;-59
2022/01/25 12:51:10;;;;;;;39.43;18.70;;;;;;;2.26;100.00;100065.69;4822346;29;20607;-60
2022/01/25 12:53:39;;;;;;;43.70;20.03;;;;;;;2.43;100.00;100066.00;4821046;29;20261;-60
2022/01/25 12:56:09;;;;;;;42.40;18.30;;;;;;;2.37;100.00;100063.03;4822169;29;20262;-60
2022/01/25 12:58:36;;;;;;;41.90;19.03;;;;;;;2.50;100.00;100054.03;4820757;29;20357;-59
2022/01/25 13:01:06;;;;;;;38.80;17.67;;;;;;;2.07;100.00;100051.31;4822153;29;20293;-60
2022/01/25 13:03:34;;;;;;;44.23;19.37;;;;;;;2.19;100.00;100050.34;4821932;29;20274;-59